sensor_id;sensor_type;location;lat;lon;timestamp;pressure;altitude;pressure_sealevel;temperature;humidity
69784;BME280;57054;51.978;4.498;2023-02-19T00:02:14;101846.38;;;8.50;100.00
69784;BME280;57054;51.978;4.498;2023-02-19T00:04:39;101836.78;;;8.49;100.00
69784;BME280;57054;51.978;4.498;2023-02-19T00:07:05;101841.16;;;8.50;100.00
69784;BME280;57054;51.978;4.498;2023-02-19T00:09:30;101835.91;;;8.52;100.00
69784;BME280;57054;51.978;4.498;2023-02-19T00:11:55;101841.13;;;8.52;100.00
69784;BME280;57054;51.978;4.498;2023-02-19T00:14:21;101846.28;;;8.55;100.00
69784;BME280;57054;51.978;4.498;2023-02-19T00:16:47;101838.50;;;8.53;100.00
69784;BME280;57054;51.978;4.498;2023-02-19T00:19:16;101831.53;;;8.52;100.00
69784;BME280;57054;51.978;4.498;2023-02-19T00:21:42;101841.97;;;8.52;100.00
69784;BME280;57054;51.978;4.498;2023-02-19T00:24:10;101834.16;;;8.52;100.00
69784;BME280;57054;51.978;4.498;2023-02-19T00:26:37;101833.28;;;8.52;100.00
69784;BME280;57054;51.978;4.498;2023-02-19T00:29:02;101832.38;;;8.53;100.00
69784;BME280;57054;51.978;4.498;2023-02-19T00:31:29;101844.59;;;8.52;100.00
69784;BME280;57054;51.978;4.498;2023-02-19T00:33:57;101847.19;;;8.52;100.00
69784;BME280;57054;51.978;4.498;2023-02-19T00:36:24;101844.59;;;8.51;100.00
69784;BME280;57054;51.978;4.498;2023-02-19T00:38:50;101850.66;;;8.53;100.00
69784;BME280;57054;51.978;4.498;2023-02-19T00:41:17;101855.88;;;8.54;100.00
69784;BME280;57054;51.978;4.498;2023-02-19T00:46:13;101861.94;;;8.55;100.00
69784;BME280;57054;51.978;4.498;2023-02-19T00:48:38;101863.72;;;8.53;100.00
69784;BME280;57054;51.978;4.498;2023-02-19T00:51:04;101862.88;;;8.52;100.00
69784;BME280;57054;51.978;4.498;2023-02-19T00:53:29;101853.28;;;8.53;100.00
69784;BME280;57054;51.978;4.498;2023-02-19T00:55:54;101863.69;;;8.54;100.00
69784;BME280;57054;51.978;4.498;2023-02-19T00:58:20;101869.81;;;8.53;100.00
69784;BME280;57054;51.978;4.498;2023-02-19T01:00:45;101865.47;;;8.54;100.00
69784;BME280;57054;51.978;4.498;2023-02-19T01:03:11;101872.38;;;8.55;100.00
69784;BME280;57054;51.978;4.498;2023-02-19T01:05:36;101868.91;;;8.56;100.00
69784;BME280;57054;51.978;4.498;2023-02-19T01:08:02;101872.34;;;8.58;100.00
69784;BME280;57054;51.978;4.498;2023-02-19T01:10:29;101864.47;;;8.61;100.00
69784;BME280;57054;51.978;4.498;2023-02-19T01:12:55;101861.78;;;8.64;100.00
69784;BME280;57054;51.978;4.498;2023-02-19T01:15:20;101877.41;;;8.67;100.00
69784;BME280;57054;51.978;4.498;2023-02-19T01:17:45;101863.47;;;8.70;100.00
69784;BME280;57054;51.978;4.498;2023-02-19T01:20:11;101874.75;;;8.72;100.00
69784;BME280;57054;51.978;4.498;2023-02-19T01:22:36;101860.75;;;8.74;100.00
69784;BME280;57054;51.978;4.498;2023-02-19T01:25:03;101869.44;;;8.76;100.00
69784;BME280;57054;51.978;4.498;2023-02-19T01:27:28;101879.84;;;8.79;100.00
69784;BME280;57054;51.978;4.498;2023-02-19T01:29:53;101873.69;;;8.82;100.00
69784;BME280;57054;51.978;4.498;2023-02-19T01:32:19;101871.91;;;8.84;100.00
69784;BME280;57054;51.978;4.498;2023-02-19T01:34:44;101872.78;;;8.86;100.00
69784;BME280;57054;51.978;4.498;2023-02-19T01:37:10;101871.00;;;8.87;100.00
69784;BME280;57054;51.978;4.498;2023-02-19T01:39:37;101878.84;;;8.88;100.00
69784;BME280;57054;51.978;4.498;2023-02-19T01:42:04;101870.09;;;8.88;100.00
69784;BME280;57054;51.978;4.498;2023-02-19T01:46:54;101872.78;;;8.86;100.00
69784;BME280;57054;51.978;4.498;2023-02-19T01:49:29;101885.78;;;8.88;100.00
69784;BME280;57054;51.978;4.498;2023-02-19T01:51:59;101881.47;;;8.87;100.00
69784;BME280;57054;51.978;4.498;2023-02-19T01:54:28;101879.72;;;8.87;100.00
69784;BME280;57054;51.978;4.498;2023-02-19T01:56:54;101875.38;;;8.86;100.00
69784;BME280;57054;51.978;4.498;2023-02-19T01:59:20;101878.00;;;8.86;100.00
69784;BME280;57054;51.978;4.498;2023-02-19T02:05:14;101892.75;;;8.87;100.00
69784;BME280;57054;51.978;4.498;2023-02-19T02:07:42;101877.06;;;8.89;100.00
69784;BME280;57054;51.978;4.498;2023-02-19T02:10:26;101890.97;;;8.89;100.00
69784;BME280;57054;51.978;4.498;2023-02-19T02:12:56;101889.25;;;8.90;100.00
69784;BME280;57054;51.978;4.498;2023-02-19T02:15:28;101891.81;;;8.91;100.00
69784;BME280;57054;51.978;4.498;2023-02-19T02:18:07;101895.28;;;8.93;100.00
69784;BME280;57054;51.978;4.498;2023-02-19T02:21:17;101892.69;;;8.93;100.00
69784;BME280;57054;51.978;4.498;2023-02-19T02:24:10;101889.19;;;8.93;100.00
69784;BME280;57054;51.978;4.498;2023-02-19T02:32:18;101886.59;;;8.91;100.00
69784;BME280;57054;51.978;4.498;2023-02-19T02:34:51;101904.94;;;8.90;100.00
69784;BME280;57054;51.978;4.498;2023-02-19T02:37:18;101904.94;;;8.90;100.00
69784;BME280;57054;51.978;4.498;2023-02-19T02:39:44;101911.00;;;8.90;100.00
69784;BME280;57054;51.978;4.498;2023-02-19T02:42:11;101915.38;;;8.90;100.00
69784;BME280;57054;51.978;4.498;2023-02-19T02:44:52;101907.53;;;8.90;100.00
69784;BME280;57054;51.978;4.498;2023-02-19T02:47:41;101910.19;;;8.88;100.00
69784;BME280;57054;51.978;4.498;2023-02-19T02:50:21;101909.28;;;8.88;100.00
69784;BME280;57054;51.978;4.498;2023-02-19T02:52:51;101912.78;;;8.88;100.00
69784;BME280;57054;51.978;4.498;2023-02-19T02:55:40;101931.09;;;8.87;100.00
69784;BME280;57054;51.978;4.498;2023-02-19T02:58:07;101917.19;;;8.86;100.00
69784;BME280;57054;51.978;4.498;2023-02-19T03:00:33;101920.66;;;8.85;100.00
69784;BME280;57054;51.978;4.498;2023-02-19T03:03:23;101919.84;;;8.83;100.00
69784;BME280;57054;51.978;4.498;2023-02-19T03:05:50;101940.72;;;8.83;100.00
69784;BME280;57054;51.978;4.498;2023-02-19T03:08:36;101937.22;;;8.84;100.00
69784;BME280;57054;51.978;4.498;2023-02-19T03:11:05;101931.16;;;8.82;100.00
69784;BME280;57054;51.978;4.498;2023-02-19T03:13:53;101937.28;;;8.81;100.00
69784;BME280;57054;51.978;4.498;2023-02-19T03:16:41;101932.91;;;8.81;100.00
69784;BME280;57054;51.978;4.498;2023-02-19T03:19:26;101940.78;;;8.80;100.00
69784;BME280;57054;51.978;4.498;2023-02-19T03:21:59;101930.34;;;8.78;100.00
69784;BME280;57054;51.978;4.498;2023-02-19T03:24:30;101936.44;;;8.79;100.00
69784;BME280;57054;51.978;4.498;2023-02-19T03:27:15;101944.31;;;8.77;100.00
69784;BME280;57054;51.978;4.498;2023-02-19T03:29:43;101921.66;;;8.78;100.00
69784;BME280;57054;51.978;4.498;2023-02-19T03:32:26;101943.41;;;8.78;100.00
69784;BME280;57054;51.978;4.498;2023-02-19T03:34:58;101944.28;;;8.79;100.00
69784;BME280;57054;51.978;4.498;2023-02-19T03:37:31;101944.28;;;8.80;100.00
69784;BME280;57054;51.978;4.498;2023-02-19T03:39:59;101963.41;;;8.81;100.00
69784;BME280;57054;51.978;4.498;2023-02-19T03:42:33;101949.44;;;8.82;100.00
69784;BME280;57054;51.978;4.498;2023-02-19T03:51:07;101969.50;;;8.80;100.00
69784;BME280;57054;51.978;4.498;2023-02-19T03:56:22;101981.72;;;8.78;100.00
69784;BME280;57054;51.978;4.498;2023-02-19T03:58:55;101977.44;;;8.75;100.00
69784;BME280;57054;51.978;4.498;2023-02-19T04:04:24;101981.88;;;8.69;100.00
69784;BME280;57054;51.978;4.498;2023-02-19T04:06:56;101976.69;;;8.65;100.00
69784;BME280;57054;51.978;4.498;2023-02-19T04:09:24;101988.03;;;8.63;100.00
69784;BME280;57054;51.978;4.498;2023-02-19T04:11:52;101986.31;;;8.62;100.00
69784;BME280;57054;51.978;4.498;2023-02-19T04:14:41;101986.31;;;8.62;100.00
69784;BME280;57054;51.978;4.498;2023-02-19T04:17:15;101991.56;;;8.60;100.00
69784;BME280;57054;51.978;4.498;2023-02-19T04:19:41;101991.59;;;8.59;100.00
69784;BME280;57054;51.978;4.498;2023-02-19T04:22:07;102010.75;;;8.58;100.00
69784;BME280;57054;51.978;4.498;2023-02-19T04:24:41;102007.28;;;8.56;100.00
69784;BME280;57054;51.978;4.498;2023-02-19T04:27:08;102008.16;;;8.55;100.00
69784;BME280;57054;51.978;4.498;2023-02-19T04:29:34;102021.25;;;8.53;100.00
69784;BME280;57054;51.978;4.498;2023-02-19T04:31:59;102019.53;;;8.52;100.00
69784;BME280;57054;51.978;4.498;2023-02-19T04:34:25;102015.16;;;8.51;100.00
69784;BME280;57054;51.978;4.498;2023-02-19T04:36:50;102023.91;;;8.50;100.00
69784;BME280;57054;51.978;4.498;2023-02-19T04:39:16;102025.69;;;8.48;100.00
69784;BME280;57054;51.978;4.498;2023-02-19T04:41:41;102026.53;;;8.47;100.00
69784;BME280;57054;51.978;4.498;2023-02-19T04:44:06;102027.44;;;8.46;100.00
69784;BME280;57054;51.978;4.498;2023-02-19T04:46:32;102040.50;;;8.46;100.00
69784;BME280;57054;51.978;4.498;2023-02-19T04:48:57;102050.06;;;8.44;100.00
69784;BME280;57054;51.978;4.498;2023-02-19T04:51:23;102050.97;;;8.43;100.00
69784;BME280;57054;51.978;4.498;2023-02-19T04:53:49;102046.63;;;8.42;100.00
69784;BME280;57054;51.978;4.498;2023-02-19T04:56:15;102048.34;;;8.44;100.00
69784;BME280;57054;51.978;4.498;2023-02-19T04:58:41;102062.25;;;8.45;100.00
69784;BME280;57054;51.978;4.498;2023-02-19T05:01:08;102061.41;;;8.43;100.00
69784;BME280;57054;51.978;4.498;2023-02-19T05:03:34;102070.94;;;8.44;100.00
69784;BME280;57054;51.978;4.498;2023-02-19T05:06:05;102070.13;;;8.42;100.00
69784;BME280;57054;51.978;4.498;2023-02-19T05:08:31;102082.28;;;8.41;100.00
69784;BME280;57054;51.978;4.498;2023-02-19T05:11:01;102080.56;;;8.40;100.00
69784;BME280;57054;51.978;4.498;2023-02-19T05:13:27;102082.28;;;8.40;100.00
69784;BME280;57054;51.978;4.498;2023-02-19T05:15:59;102085.81;;;8.39;100.00
69784;BME280;57054;51.978;4.498;2023-02-19T05:18:25;102094.50;;;8.38;100.00
69784;BME280;57054;51.978;4.498;2023-02-19T05:20:51;102106.69;;;8.37;100.00
69784;BME280;57054;51.978;4.498;2023-02-19T05:23:18;102100.63;;;8.37;100.00
69784;BME280;57054;51.978;4.498;2023-02-19T05:25:44;102111.94;;;8.34;100.00
69784;BME280;57054;51.978;4.498;2023-02-19T05:28:09;102121.53;;;8.34;100.00
69784;BME280;57054;51.978;4.498;2023-02-19T05:30:41;102107.66;;;8.30;100.00
69784;BME280;57054;51.978;4.498;2023-02-19T05:33:07;102106.78;;;8.30;100.00
69784;BME280;57054;51.978;4.498;2023-02-19T05:35:32;102107.66;;;8.27;100.00
69784;BME280;57054;51.978;4.498;2023-02-19T05:37:58;102102.47;;;8.24;100.00
69784;BME280;57054;51.978;4.498;2023-02-19T05:40:23;102112.06;;;8.23;100.00
69784;BME280;57054;51.978;4.498;2023-02-19T05:42:49;102099.91;;;8.22;100.00
69784;BME280;57054;51.978;4.498;2023-02-19T05:45:14;102098.16;;;8.21;100.00
69784;BME280;57054;51.978;4.498;2023-02-19T05:47:39;102099.03;;;8.22;100.00
69784;BME280;57054;51.978;4.498;2023-02-19T05:50:05;102095.53;;;8.23;100.00
69784;BME280;57054;51.978;4.498;2023-02-19T05:52:31;102107.69;;;8.24;100.00
69784;BME280;57054;51.978;4.498;2023-02-19T05:54:57;102102.53;;;8.21;100.00
69784;BME280;57054;51.978;4.498;2023-02-19T05:57:22;102107.75;;;8.22;100.00
69784;BME280;57054;51.978;4.498;2023-02-19T05:59:47;102108.59;;;8.21;100.00
69784;BME280;57054;51.978;4.498;2023-02-19T06:02:13;102110.38;;;8.18;100.00
69784;BME280;57054;51.978;4.498;2023-02-19T06:04:38;102135.63;;;8.19;100.00
69784;BME280;57054;51.978;4.498;2023-02-19T06:07:04;102122.56;;;8.17;100.00
69784;BME280;57054;51.978;4.498;2023-02-19T06:09:29;102126.03;;;8.19;100.00
69784;BME280;57054;51.978;4.498;2023-02-19T06:11:56;102136.47;;;8.19;100.00
69784;BME280;57054;51.978;4.498;2023-02-19T06:14:21;102133.00;;;8.19;100.00
69784;BME280;57054;51.978;4.498;2023-02-19T06:16:47;102133.00;;;8.17;100.00
69784;BME280;57054;51.978;4.498;2023-02-19T06:19:12;102136.47;;;8.19;100.00
69784;BME280;57054;51.978;4.498;2023-02-19T06:21:37;102144.31;;;8.18;100.00
69784;BME280;57054;51.978;4.498;2023-02-19T06:24:05;102144.31;;;8.16;100.00
69784;BME280;57054;51.978;4.498;2023-02-19T06:26:30;102138.25;;;8.16;100.00
69784;BME280;57054;51.978;4.498;2023-02-19T06:28:56;102148.69;;;8.16;100.00
69784;BME280;57054;51.978;4.498;2023-02-19T06:31:21;102146.06;;;8.14;100.00
69784;BME280;57054;51.978;4.498;2023-02-19T06:33:47;102142.63;;;8.12;100.00
69784;BME280;57054;51.978;4.498;2023-02-19T06:36:17;102160.03;;;8.10;100.00
69784;BME280;57054;51.978;4.498;2023-02-19T06:38:43;102160.91;;;8.11;100.00
69784;BME280;57054;51.978;4.498;2023-02-19T06:41:09;102156.59;;;8.08;100.00
69784;BME280;57054;51.978;4.498;2023-02-19T06:43:35;102153.09;;;8.09;100.00
69784;BME280;57054;51.978;4.498;2023-02-19T06:46:02;102167.88;;;8.08;100.00
69784;BME280;57054;51.978;4.498;2023-02-19T06:48:29;102172.25;;;8.06;100.00
69784;BME280;57054;51.978;4.498;2023-02-19T06:50:55;102165.28;;;8.05;100.00
69784;BME280;57054;51.978;4.498;2023-02-19T06:53:21;102171.41;;;8.06;100.00
69784;BME280;57054;51.978;4.498;2023-02-19T06:56:01;102174.84;;;8.06;100.00
69784;BME280;57054;51.978;4.498;2023-02-19T06:58:27;102167.03;;;8.05;100.00
69784;BME280;57054;51.978;4.498;2023-02-19T07:00:53;102174.00;;;8.06;100.00
69784;BME280;57054;51.978;4.498;2023-02-19T07:03:19;102170.50;;;8.07;100.00
69784;BME280;57054;51.978;4.498;2023-02-19T07:05:44;102175.72;;;8.07;100.00
69784;BME280;57054;51.978;4.498;2023-02-19T07:08:10;102185.28;;;8.10;100.00
69784;BME280;57054;51.978;4.498;2023-02-19T07:10:35;102188.75;;;8.10;100.00
69784;BME280;57054;51.978;4.498;2023-02-19T07:13:00;102200.94;;;8.10;100.00
69784;BME280;57054;51.978;4.498;2023-02-19T07:15:26;102205.25;;;8.09;100.00
69784;BME280;57054;51.978;4.498;2023-02-19T07:17:51;102210.50;;;8.07;100.00
69784;BME280;57054;51.978;4.498;2023-02-19T07:20:17;102212.25;;;8.05;100.00
69784;BME280;57054;51.978;4.498;2023-02-19T07:22:42;102216.63;;;8.05;100.00
69784;BME280;57054;51.978;4.498;2023-02-19T07:25:07;102226.19;;;8.03;100.00
69784;BME280;57054;51.978;4.498;2023-02-19T07:27:33;102227.06;;;8.02;100.00
69784;BME280;57054;51.978;4.498;2023-02-19T07:29:58;102238.38;;;8.02;100.00
69784;BME280;57054;51.978;4.498;2023-02-19T07:32:23;102230.56;;;8.01;100.00
69784;BME280;57054;51.978;4.498;2023-02-19T07:34:49;102247.94;;;8.00;100.00
69784;BME280;57054;51.978;4.498;2023-02-19T07:37:14;102250.56;;;8.00;100.00
69784;BME280;57054;51.978;4.498;2023-02-19T07:39:40;102260.19;;;7.95;100.00
69784;BME280;57054;51.978;4.498;2023-02-19T07:42:05;102257.56;;;7.97;100.00
69784;BME280;57054;51.978;4.498;2023-02-19T07:44:30;102271.47;;;7.96;100.00
69784;BME280;57054;51.978;4.498;2023-02-19T07:46:56;102262.78;;;7.95;100.00
69784;BME280;57054;51.978;4.498;2023-02-19T07:49:21;102274.09;;;7.93;100.00
69784;BME280;57054;51.978;4.498;2023-02-19T07:51:47;102281.91;;;7.91;100.00
69784;BME280;57054;51.978;4.498;2023-02-19T07:54:12;102286.28;;;7.89;100.00
69784;BME280;57054;51.978;4.498;2023-02-19T07:56:37;102288.03;;;7.87;100.00
69784;BME280;57054;51.978;4.498;2023-02-19T07:59:03;102298.47;;;7.88;100.00
69784;BME280;57054;51.978;4.498;2023-02-19T08:01:28;102299.38;;;7.86;100.00
69784;BME280;57054;51.978;4.498;2023-02-19T08:04:13;102308.06;;;7.85;100.00
69784;BME280;57054;51.978;4.498;2023-02-19T08:06:39;102306.31;;;7.84;100.00
69784;BME280;57054;51.978;4.498;2023-02-19T08:09:04;102315.88;;;7.83;100.00
69784;BME280;57054;51.978;4.498;2023-02-19T08:11:30;102318.50;;;7.82;100.00
69784;BME280;57054;51.978;4.498;2023-02-19T08:14:14;102308.06;;;7.80;100.00
69784;BME280;57054;51.978;4.498;2023-02-19T08:16:47;102314.19;;;7.82;100.00
69784;BME280;57054;51.978;4.498;2023-02-19T08:19:12;102320.25;;;7.81;100.00
69784;BME280;57054;51.978;4.498;2023-02-19T08:21:38;102322.00;;;7.82;100.00
69784;BME280;57054;51.978;4.498;2023-02-19T08:24:04;102312.44;;;7.81;100.00
69784;BME280;57054;51.978;4.498;2023-02-19T08:26:29;102314.19;;;7.81;100.00
69784;BME280;57054;51.978;4.498;2023-02-19T08:28:54;102329.81;;;7.81;100.00
69784;BME280;57054;51.978;4.498;2023-02-19T08:31:20;102327.22;;;7.78;100.00
69784;BME280;57054;51.978;4.498;2023-02-19T08:33:45;102328.09;;;7.78;100.00
69784;BME280;57054;51.978;4.498;2023-02-19T08:36:10;102322.88;;;7.78;100.00
69784;BME280;57054;51.978;4.498;2023-02-19T08:38:36;102332.44;;;7.81;100.00
69784;BME280;57054;51.978;4.498;2023-02-19T08:41:10;102328.06;;;7.80;100.00
69784;BME280;57054;51.978;4.498;2023-02-19T08:43:36;102327.22;;;7.78;100.00
69784;BME280;57054;51.978;4.498;2023-02-19T08:46:02;102324.63;;;7.79;100.00
69784;BME280;57054;51.978;4.498;2023-02-19T08:48:28;102332.44;;;7.79;100.00
69784;BME280;57054;51.978;4.498;2023-02-19T08:50:59;102338.50;;;7.81;100.00
69784;BME280;57054;51.978;4.498;2023-02-19T08:53:25;102332.44;;;7.82;100.00
69784;BME280;57054;51.978;4.498;2023-02-19T08:55:51;102334.16;;;7.82;100.00
69784;BME280;57054;51.978;4.498;2023-02-19T08:58:16;102330.69;;;7.83;100.00
69784;BME280;57054;51.978;4.498;2023-02-19T09:00:42;102327.19;;;7.84;100.00
69784;BME280;57054;51.978;4.498;2023-02-19T09:03:08;102324.56;;;7.84;100.00
69784;BME280;57054;51.978;4.498;2023-02-19T09:05:33;102321.97;;;7.85;100.00
69784;BME280;57054;51.978;4.498;2023-02-19T09:07:59;102321.09;;;7.86;100.00
69784;BME280;57054;51.978;4.498;2023-02-19T09:10:24;102327.16;;;7.87;100.00
69784;BME280;57054;51.978;4.498;2023-02-19T09:12:50;102338.47;;;7.87;100.00
69784;BME280;57054;51.978;4.498;2023-02-19T09:15:15;102341.97;;;7.86;100.00
69784;BME280;57054;51.978;4.498;2023-02-19T09:17:40;102351.50;;;7.87;100.00
69784;BME280;57054;51.978;4.498;2023-02-19T09:20:06;102351.50;;;7.87;100.00
69784;BME280;57054;51.978;4.498;2023-02-19T09:22:32;102348.91;;;7.87;100.00
69784;BME280;57054;51.978;4.498;2023-02-19T09:24:57;102348.03;;;7.87;100.00
69784;BME280;57054;51.978;4.498;2023-02-19T09:27:23;102371.50;;;7.88;100.00
69784;BME280;57054;51.978;4.498;2023-02-19T09:29:48;102379.34;;;7.88;100.00
69784;BME280;57054;51.978;4.498;2023-02-19T09:32:13;102388.91;;;7.90;100.00
69784;BME280;57054;51.978;4.498;2023-02-19T09:34:39;102390.63;;;7.89;100.00
69784;BME280;57054;51.978;4.498;2023-02-19T09:37:05;102387.16;;;7.90;100.00
69784;BME280;57054;51.978;4.498;2023-02-19T09:39:31;102400.19;;;7.92;100.00
69784;BME280;57054;51.978;4.498;2023-02-19T09:42:00;102397.56;;;7.96;100.00
69784;BME280;57054;51.978;4.498;2023-02-19T09:44:33;102392.34;;;7.99;100.00
69784;BME280;57054;51.978;4.498;2023-02-19T09:47:00;102414.06;;;8.04;100.00
69784;BME280;57054;51.978;4.498;2023-02-19T09:49:31;102417.53;;;8.06;100.00
69784;BME280;57054;51.978;4.498;2023-02-19T09:52:05;102418.38;;;8.10;100.00
69784;BME280;57054;51.978;4.498;2023-02-19T09:54:35;102427.91;;;8.11;100.00
69784;BME280;57054;51.978;4.498;2023-02-19T09:57:02;102437.50;;;8.09;100.00
69784;BME280;57054;51.978;4.498;2023-02-19T10:00:00;102440.09;;;8.07;100.00
69784;BME280;57054;51.978;4.498;2023-02-19T10:02:27;102438.41;;;8.05;100.00
69784;BME280;57054;51.978;4.498;2023-02-19T10:04:54;102436.69;;;8.01;100.00
69784;BME280;57054;51.978;4.498;2023-02-19T10:07:39;102439.28;;;7.98;100.00
69784;BME280;57054;51.978;4.498;2023-02-19T10:10:25;102454.09;;;7.94;98.84
69784;BME280;57054;51.978;4.498;2023-02-19T10:12:54;102461.06;;;7.92;98.30
69784;BME280;57054;51.978;4.498;2023-02-19T10:15:38;102444.56;;;7.88;98.34
69784;BME280;57054;51.978;4.498;2023-02-19T10:18:05;102460.22;;;7.90;98.92
69784;BME280;57054;51.978;4.498;2023-02-19T10:20:31;102460.22;;;7.87;98.31
69784;BME280;57054;51.978;4.498;2023-02-19T10:23:02;102466.31;;;7.83;97.94
69784;BME280;57054;51.978;4.498;2023-02-19T10:25:28;102476.75;;;7.80;98.44
69784;BME280;57054;51.978;4.498;2023-02-19T10:27:57;102475.88;;;7.79;98.93
69784;BME280;57054;51.978;4.498;2023-02-19T10:30:27;102476.78;;;7.77;99.00
69784;BME280;57054;51.978;4.498;2023-02-19T10:33:13;102485.47;;;7.76;99.07
69784;BME280;57054;51.978;4.498;2023-02-19T10:35:54;102485.47;;;7.74;99.41
69784;BME280;57054;51.978;4.498;2023-02-19T10:38:29;102488.06;;;7.73;99.72
69784;BME280;57054;51.978;4.498;2023-02-19T10:41:07;102497.63;;;7.72;99.73
69784;BME280;57054;51.978;4.498;2023-02-19T10:43:37;102488.06;;;7.73;100.00
69784;BME280;57054;51.978;4.498;2023-02-19T10:46:14;102485.47;;;7.71;100.00
69784;BME280;57054;51.978;4.498;2023-02-19T10:48:46;102488.09;;;7.69;100.00
69784;BME280;57054;51.978;4.498;2023-02-19T10:51:14;102495.91;;;7.69;100.00
69784;BME280;57054;51.978;4.498;2023-02-19T10:53:51;102500.25;;;7.67;100.00
69784;BME280;57054;51.978;4.498;2023-02-19T10:56:27;102497.66;;;7.66;100.00
69784;BME280;57054;51.978;4.498;2023-02-19T10:59:14;102490.69;;;7.66;100.00
69784;BME280;57054;51.978;4.498;2023-02-19T11:04:21;102494.19;;;7.62;100.00
69784;BME280;57054;51.978;4.498;2023-02-19T11:06:46;102491.59;;;7.62;100.00
69784;BME280;57054;51.978;4.498;2023-02-19T11:09:27;102487.22;;;7.64;100.00
69784;BME280;57054;51.978;4.498;2023-02-19T11:11:54;102491.56;;;7.67;100.00
69784;BME280;57054;51.978;4.498;2023-02-19T11:14:23;102485.47;;;7.71;100.00
69784;BME280;57054;51.978;4.498;2023-02-19T11:16:51;102487.22;;;7.74;100.00
69784;BME280;57054;51.978;4.498;2023-02-19T11:19:42;102488.06;;;7.79;100.00
69784;BME280;57054;51.978;4.498;2023-02-19T11:22:19;102485.44;;;7.80;100.00
69784;BME280;57054;51.978;4.498;2023-02-19T11:24:51;102482.81;;;7.82;100.00
69784;BME280;57054;51.978;4.498;2023-02-19T11:27:20;102487.19;;;7.83;100.00
69784;BME280;57054;51.978;4.498;2023-02-19T11:29:46;102487.19;;;7.83;100.00
69784;BME280;57054;51.978;4.498;2023-02-19T11:32:27;102488.94;;;7.82;100.00
69784;BME280;57054;51.978;4.498;2023-02-19T11:35:26;102495.88;;;7.82;100.00
69784;BME280;57054;51.978;4.498;2023-02-19T11:37:56;102484.56;;;7.84;100.00
69784;BME280;57054;51.978;4.498;2023-02-19T11:40:31;102488.91;;;7.85;100.00
69784;BME280;57054;51.978;4.498;2023-02-19T11:43:10;102487.19;;;7.86;100.00
69784;BME280;57054;51.978;4.498;2023-02-19T11:48:32;102479.34;;;7.84;99.83
69784;BME280;57054;51.978;4.498;2023-02-19T11:51:04;102481.97;;;7.83;99.66
69784;BME280;57054;51.978;4.498;2023-02-19T11:53:44;102490.66;;;7.82;99.99
69784;BME280;57054;51.978;4.498;2023-02-19T11:56:23;102485.44;;;7.82;99.98
69784;BME280;57054;51.978;4.498;2023-02-19T12:15:07;102504.59;;;7.81;100.00
69784;BME280;57054;51.978;4.498;2023-02-19T12:17:49;102506.31;;;7.79;100.00
69784;BME280;57054;51.978;4.498;2023-02-19T12:20:27;102494.16;;;7.76;100.00
69784;BME280;57054;51.978;4.498;2023-02-19T12:32:08;102516.72;;;7.83;100.00
69784;BME280;57054;51.978;4.498;2023-02-19T12:37:29;102515.88;;;7.84;100.00
69784;BME280;57054;51.978;4.498;2023-02-19T12:40:23;102524.56;;;7.83;100.00
69784;BME280;57054;51.978;4.498;2023-02-19T12:45:55;102530.63;;;7.90;100.00
69784;BME280;57054;51.978;4.498;2023-02-19T12:51:07;102539.31;;;7.95;100.00
69784;BME280;57054;51.978;4.498;2023-02-19T12:53:46;102548.88;;;7.96;100.00
69784;BME280;57054;51.978;4.498;2023-02-19T12:56:20;102550.63;;;7.97;100.00
69784;BME280;57054;51.978;4.498;2023-02-19T12:58:53;102567.13;;;7.96;100.00
69784;BME280;57054;51.978;4.498;2023-02-19T13:01:25;102582.78;;;7.95;100.00
69784;BME280;57054;51.978;4.498;2023-02-19T13:06:29;102583.69;;;7.91;100.00
69784;BME280;57054;51.978;4.498;2023-02-19T13:09:12;102578.44;;;7.87;100.00
69784;BME280;57054;51.978;4.498;2023-02-19T13:11:43;102583.69;;;7.86;100.00
69784;BME280;57054;51.978;4.498;2023-02-19T13:14:23;102583.69;;;7.84;100.00
69784;BME280;57054;51.978;4.498;2023-02-19T13:16:56;102601.06;;;7.84;100.00
69784;BME280;57054;51.978;4.498;2023-02-19T13:19:24;102588.03;;;7.85;100.00
69784;BME280;57054;51.978;4.498;2023-02-19T13:21:56;102588.03;;;7.85;99.76
69784;BME280;57054;51.978;4.498;2023-02-19T13:24:45;102582.81;;;7.87;99.23
69784;BME280;57054;51.978;4.498;2023-02-19T13:27:39;102591.50;;;7.87;98.63
69784;BME280;57054;51.978;4.498;2023-02-19T13:38:43;102603.66;;;7.95;96.92
69784;BME280;57054;51.978;4.498;2023-02-19T13:41:27;102599.34;;;7.95;96.68
69784;BME280;57054;51.978;4.498;2023-02-19T13:43:57;102606.28;;;7.96;96.99
69784;BME280;57054;51.978;4.498;2023-02-19T13:46:23;102610.63;;;7.96;97.56
69784;BME280;57054;51.978;4.498;2023-02-19T13:51:49;102629.75;;;7.95;98.51
69784;BME280;57054;51.978;4.498;2023-02-19T13:54:31;102634.09;;;7.94;98.72
69784;BME280;57054;51.978;4.498;2023-02-19T13:59:57;102627.16;;;7.90;98.29
69784;BME280;57054;51.978;4.498;2023-02-19T14:02:27;102633.25;;;7.89;98.05
69784;BME280;57054;51.978;4.498;2023-02-19T14:09:55;102638.47;;;7.83;97.33
69784;BME280;57054;51.978;4.498;2023-02-19T14:12:33;102646.28;;;7.83;97.78
69784;BME280;57054;51.978;4.498;2023-02-19T14:17:49;102658.47;;;7.79;97.96
69784;BME280;57054;51.978;4.498;2023-02-19T14:33:09;102644.56;;;7.68;96.69
69784;BME280;57054;51.978;4.498;2023-02-19T14:35:43;102637.59;;;7.67;96.65
69784;BME280;57054;51.978;4.498;2023-02-19T14:38:17;102627.16;;;7.67;96.87
69784;BME280;57054;51.978;4.498;2023-02-19T14:40:45;102640.19;;;7.64;96.29
69784;BME280;57054;51.978;4.498;2023-02-19T14:43:14;102645.44;;;7.61;96.25
69784;BME280;57054;51.978;4.498;2023-02-19T14:45:43;102640.22;;;7.59;96.38
69784;BME280;57054;51.978;4.498;2023-02-19T14:48:21;102635.00;;;7.52;96.67